createdAt,value
2017-09-27T00:01:09.851Z,13.90
2017-09-27T00:03:36.756Z,13.90
2017-09-27T00:06:02.945Z,13.90
2017-09-27T00:08:29.134Z,13.90
2017-09-27T00:10:55.347Z,13.90
2017-09-27T00:13:21.508Z,13.80
2017-09-27T00:15:47.679Z,13.90
2017-09-27T00:18:13.888Z,13.90
2017-09-27T00:20:40.063Z,13.90
2017-09-27T00:23:06.214Z,13.90
2017-09-27T00:25:32.394Z,13.80
2017-09-27T00:27:59.328Z,13.90
2017-09-27T00:30:26.283Z,13.90
2017-09-27T00:32:52.449Z,13.90
2017-09-27T00:35:18.633Z,13.90
2017-09-27T00:37:44.831Z,13.80
2017-09-27T00:40:10.999Z,13.90
2017-09-27T00:42:37.204Z,13.90
2017-09-27T00:45:03.400Z,13.90
2017-09-27T00:47:30.335Z,13.90
2017-09-27T00:49:57.285Z,13.90
2017-09-27T00:52:23.478Z,13.90
2017-09-27T00:54:49.688Z,13.90
2017-09-27T00:57:16.632Z,13.90
2017-09-27T00:59:42.803Z,13.90
2017-09-27T01:02:08.980Z,14.00
2017-09-27T01:04:35.162Z,14.00
2017-09-27T01:07:02.207Z,14.00
2017-09-27T01:09:29.127Z,14.00
2017-09-27T01:11:55.304Z,14.00
2017-09-27T01:14:21.476Z,13.90
2017-09-27T01:16:47.675Z,13.90
2017-09-27T01:19:13.859Z,13.90
2017-09-27T01:21:40.072Z,13.90
2017-09-27T01:24:21.240Z,13.90
2017-09-27T01:26:47.433Z,13.80
2017-09-27T01:29:13.615Z,13.90
2017-09-27T01:31:39.809Z,13.90
2017-09-27T01:34:06.014Z,13.90
2017-09-27T01:36:32.216Z,13.90
2017-09-27T01:38:58.378Z,13.90
2017-09-27T01:41:24.579Z,13.80
2017-09-27T01:43:50.795Z,13.80
2017-09-27T01:46:16.983Z,13.80
2017-09-27T01:48:43.193Z,13.90
2017-09-27T01:51:09.375Z,13.90
2017-09-27T01:53:35.577Z,13.90
2017-09-27T01:56:02.567Z,13.80
2017-09-27T01:58:29.505Z,13.80
2017-09-27T02:00:55.707Z,13.80
2017-09-27T02:03:22.659Z,13.80
2017-09-27T02:05:48.863Z,13.80
2017-09-27T02:08:15.827Z,13.90
2017-09-27T02:10:42.727Z,14.00
2017-09-27T02:13:08.899Z,13.90
2017-09-27T02:15:35.072Z,14.00
2017-09-27T02:18:01.252Z,14.00
2017-09-27T02:20:27.399Z,14.00
2017-09-27T02:22:53.579Z,14.00
2017-09-27T02:25:19.741Z,14.00
2017-09-27T02:27:46.684Z,14.00
2017-09-27T02:30:13.621Z,14.00
2017-09-27T02:32:40.537Z,14.00
2017-09-27T02:35:07.437Z,14.00
2017-09-27T02:37:33.612Z,14.00
2017-09-27T02:39:59.778Z,14.00
2017-09-27T02:42:25.952Z,14.10
2017-09-27T02:44:52.112Z,14.10
2017-09-27T02:47:18.269Z,14.10
2017-09-27T02:49:44.497Z,14.10
2017-09-27T02:52:10.696Z,14.10
2017-09-27T02:54:36.875Z,14.20
2017-09-27T02:57:03.031Z,14.20
2017-09-27T02:59:29.216Z,14.20
2017-09-27T03:01:56.133Z,14.30
2017-09-27T03:04:22.329Z,14.30
2017-09-27T03:06:48.504Z,14.20
2017-09-27T03:09:14.672Z,14.30
2017-09-27T03:11:40.827Z,14.20
2017-09-27T03:14:07.003Z,14.20
2017-09-27T03:16:33.895Z,14.30
2017-09-27T03:19:00.847Z,14.20
2017-09-27T03:21:27.007Z,14.20
2017-09-27T03:23:53.214Z,14.20
2017-09-27T03:26:19.452Z,14.20
2017-09-27T03:28:45.637Z,14.30
2017-09-27T03:31:13.474Z,14.30
2017-09-27T03:33:40.376Z,14.30
2017-09-27T03:36:06.584Z,14.30
2017-09-27T03:38:32.741Z,14.30
2017-09-27T03:40:59.647Z,14.40
2017-09-27T03:43:25.810Z,14.30
2017-09-27T03:45:59.032Z,14.30
2017-09-27T03:48:25.203Z,14.30
2017-09-27T03:50:51.375Z,14.30
2017-09-27T03:53:18.271Z,14.30
2017-09-27T03:55:44.467Z,14.30
2017-09-27T03:58:10.635Z,14.30
2017-09-27T04:00:37.619Z,14.30
2017-09-27T04:03:03.779Z,14.30
2017-09-27T04:05:29.940Z,14.20
2017-09-27T04:07:56.136Z,14.20
2017-09-27T04:10:22.293Z,14.20
2017-09-27T05:34:45.375Z,13.60
2017-09-27T05:37:12.300Z,13.70
2017-09-27T05:39:39.247Z,13.80
2017-09-27T05:42:06.161Z,13.90
2017-09-27T05:44:33.061Z,14.00
2017-09-27T05:46:59.239Z,14.00
2017-09-27T05:49:25.469Z,14.00
2017-09-27T05:51:51.646Z,14.10
2017-09-27T05:54:18.568Z,14.10
2017-09-27T05:56:45.512Z,14.20
2017-09-27T05:59:12.467Z,14.20
2017-09-27T06:01:38.615Z,14.20
2017-09-27T06:04:04.790Z,14.20
2017-09-27T06:06:30.967Z,14.30
2017-09-27T06:08:57.896Z,14.20
2017-09-27T06:11:24.805Z,14.20
2017-09-27T06:13:50.979Z,14.20
2017-09-27T06:16:17.131Z,14.20
2017-09-27T06:18:43.305Z,14.20
2017-09-27T06:21:09.468Z,14.30
2017-09-27T06:23:35.660Z,14.20
2017-09-27T06:26:01.815Z,14.20
2017-09-27T06:28:28.955Z,14.10
2017-09-27T06:30:55.897Z,14.10
2017-09-27T06:33:22.080Z,14.10
2017-09-27T06:35:48.255Z,14.10
2017-09-27T06:38:14.535Z,14.10
2017-09-27T06:40:40.655Z,14.10
2017-09-27T06:43:06.836Z,14.10
2017-09-27T06:45:33.012Z,14.10
2017-09-27T06:47:59.248Z,14.10
2017-09-27T06:50:25.423Z,14.10
2017-09-27T06:52:51.591Z,14.00
2017-09-27T06:55:17.763Z,13.80
2017-09-27T06:57:43.920Z,13.90
2017-09-27T07:00:10.101Z,13.90
2017-09-27T07:02:36.263Z,13.90
2017-09-27T07:05:03.192Z,13.90
2017-09-27T07:07:30.089Z,14.00
2017-09-27T07:09:56.246Z,14.00
2017-09-27T07:12:23.159Z,14.00
2017-09-27T07:14:49.309Z,14.00
2017-09-27T07:17:15.504Z,14.00
2017-09-27T07:19:42.404Z,14.00
2017-09-27T07:22:08.588Z,13.90
2017-09-27T07:24:34.750Z,13.90
2017-09-27T07:27:01.712Z,13.90
2017-09-27T07:29:27.904Z,14.00
2017-09-27T07:31:54.855Z,13.90
2017-09-27T07:34:21.035Z,13.90
2017-09-27T07:36:47.222Z,13.90
2017-09-27T07:39:13.375Z,13.90
2017-09-27T07:41:40.305Z,13.90
2017-09-27T07:44:07.216Z,13.90
2017-09-27T07:46:33.388Z,13.90
2017-09-27T07:48:59.531Z,14.00
2017-09-27T07:51:25.722Z,14.00
2017-09-27T07:53:51.889Z,14.00
2017-09-27T07:56:18.796Z,14.00
2017-09-27T07:58:44.985Z,14.00
2017-09-27T08:01:11.157Z,14.00
2017-09-27T08:03:38.083Z,14.00
2017-09-27T08:06:05.016Z,14.00
2017-09-27T08:08:31.912Z,14.00
2017-09-27T08:10:58.080Z,14.00
2017-09-27T08:13:24.264Z,14.10
2017-09-27T08:15:51.163Z,14.20
2017-09-27T08:18:17.330Z,14.20
2017-09-27T08:20:43.525Z,14.30
2017-09-27T08:23:10.422Z,14.50
2017-09-27T08:25:36.575Z,14.40
2017-09-27T08:28:03.503Z,14.50
2017-09-27T08:30:30.463Z,14.60
2017-09-27T08:32:56.637Z,14.60
2017-09-27T08:35:22.787Z,14.50
2017-09-27T08:37:48.991Z,14.50
2017-09-27T08:40:15.156Z,14.50
2017-09-27T08:42:41.348Z,14.50
2017-09-27T08:45:07.501Z,14.50
2017-09-27T08:47:33.699Z,14.40
2017-09-27T08:50:00.588Z,14.20
2017-09-27T08:52:26.740Z,14.20
2017-09-27T08:54:54.412Z,14.10
2017-09-27T08:57:21.335Z,14.20
2017-09-27T08:59:47.488Z,14.10
2017-09-27T09:02:13.688Z,14.20
2017-09-27T09:04:40.577Z,14.40
2017-09-27T09:07:06.726Z,14.40
2017-09-27T09:09:33.649Z,14.50
2017-09-27T09:11:59.801Z,14.50
2017-09-27T09:14:25.980Z,14.50
2017-09-27T09:16:52.881Z,14.40
2017-09-27T09:19:19.064Z,14.30
2017-09-27T09:21:45.225Z,14.40
2017-09-27T09:24:11.391Z,14.30
2017-09-27T09:26:37.552Z,14.30
2017-09-27T09:29:03.768Z,14.30
2017-09-27T09:31:29.920Z,14.40
2017-09-27T09:33:56.103Z,14.60
2017-09-27T09:36:22.262Z,14.70
2017-09-27T09:38:48.444Z,14.80
2017-09-27T09:41:15.356Z,14.90
2017-09-27T09:43:41.533Z,14.90
2017-09-27T09:46:07.684Z,15.00
2017-09-27T09:48:33.873Z,15.00
2017-09-27T09:51:00.053Z,15.10
2017-09-27T09:53:26.233Z,15.10
2017-09-27T09:55:53.155Z,15.10
2017-09-27T09:58:19.340Z,15.10
2017-09-27T10:00:45.492Z,15.10
2017-09-27T10:03:12.414Z,15.10
2017-09-27T10:05:38.577Z,15.20
2017-09-27T10:08:04.767Z,15.20
2017-09-27T10:10:30.944Z,15.30
2017-09-27T10:12:57.107Z,15.40
2017-09-27T10:15:23.292Z,15.50
2017-09-27T10:17:50.183Z,15.50
2017-09-27T10:20:16.352Z,15.50
2017-09-27T10:22:43.259Z,15.70
2017-09-27T10:25:09.437Z,15.70
2017-09-27T10:27:36.337Z,15.70
2017-09-27T10:30:02.562Z,15.70
2017-09-27T10:32:28.780Z,15.50
2017-09-27T10:34:54.962Z,15.50
2017-09-27T10:37:21.919Z,15.60
2017-09-27T10:39:48.092Z,15.60
2017-09-27T10:42:14.240Z,15.60
2017-09-27T10:44:40.410Z,15.60
2017-09-27T10:47:06.564Z,15.60
2017-09-27T10:49:32.757Z,15.70
2017-09-27T10:51:59.639Z,15.90
2017-09-27T10:54:25.868Z,16.00
2017-09-27T10:56:52.020Z,16.00
2017-09-27T10:59:18.943Z,16.00
2017-09-27T11:01:45.828Z,16.00
2017-09-27T11:04:12.000Z,16.00
2017-09-27T11:06:38.928Z,16.20
2017-09-27T11:09:05.828Z,16.30
2017-09-27T11:11:32.014Z,16.30
2017-09-27T11:13:58.188Z,16.30
2017-09-27T11:16:25.109Z,16.40
2017-09-27T11:18:52.009Z,16.40
2017-09-27T11:21:18.184Z,16.40
2017-09-27T11:23:44.376Z,16.40
2017-09-27T11:26:11.285Z,16.50
2017-09-27T11:28:37.456Z,16.50
2017-09-27T11:31:03.632Z,16.60
2017-09-27T11:33:30.532Z,16.80
2017-09-27T11:35:56.704Z,16.80
2017-09-27T11:38:22.860Z,16.90
2017-09-27T11:40:49.040Z,17.00
2017-09-27T11:43:15.224Z,17.10
2017-09-27T11:45:41.401Z,17.10
2017-09-27T11:48:07.552Z,17.20
2017-09-27T11:50:40.783Z,17.30
2017-09-27T11:53:06.934Z,17.50
2017-09-27T11:55:33.868Z,17.90
2017-09-27T11:58:00.759Z,18.10
2017-09-27T12:00:26.971Z,18.00
2017-09-27T12:02:53.169Z,18.30
2017-09-27T12:05:19.332Z,18.50
2017-09-27T12:07:46.257Z,18.40
2017-09-27T12:10:12.525Z,18.40
2017-09-27T12:12:38.695Z,18.30
2017-09-27T12:15:05.601Z,18.40
2017-09-27T12:17:31.776Z,18.30
2017-09-27T12:19:58.079Z,18.50
2017-09-27T12:22:24.248Z,18.40
2017-09-27T12:24:50.408Z,18.20
2017-09-27T12:27:16.567Z,18.20
2017-09-27T12:29:42.760Z,18.30
2017-09-27T12:32:08.957Z,18.50
2017-09-27T12:34:35.107Z,18.90
2017-09-27T12:37:01.894Z,20.10
2017-09-27T12:39:28.289Z,20.70
2017-09-27T12:41:55.180Z,21.10
2017-09-27T12:44:21.348Z,21.10
2017-09-27T12:46:47.499Z,21.00
2017-09-27T12:49:13.664Z,21.20
2017-09-27T12:51:40.581Z,21.30
2017-09-27T12:54:07.517Z,21.10
2017-09-27T12:56:34.663Z,20.80
2017-09-27T12:59:01.623Z,20.40
2017-09-27T13:01:27.791Z,20.30
2017-09-27T13:03:53.962Z,20.20
2017-09-27T13:06:20.139Z,20.10
2017-09-27T13:08:46.308Z,20.00
2017-09-27T13:11:12.488Z,19.90
2017-09-27T13:13:38.651Z,19.80
2017-09-27T13:16:04.825Z,19.70
2017-09-27T13:18:30.989Z,20.00
2017-09-27T13:20:57.909Z,19.90
2017-09-27T13:23:24.071Z,19.90
2017-09-27T13:25:50.254Z,19.90
2017-09-27T13:28:17.164Z,19.60
2017-09-27T13:30:43.770Z,19.60
2017-09-27T13:33:09.930Z,19.50
2017-09-27T13:35:36.842Z,19.60
2017-09-27T13:38:03.058Z,19.60
2017-09-27T13:40:29.228Z,19.70
2017-09-27T13:42:55.378Z,19.80
2017-09-27T13:45:21.575Z,20.00
2017-09-27T13:47:47.727Z,19.90
2017-09-27T13:50:14.677Z,19.90
2017-09-27T13:52:40.836Z,19.90
2017-09-27T13:55:07.032Z,20.00
2017-09-27T13:57:33.197Z,20.20
2017-09-27T14:00:00.115Z,20.40
2017-09-27T14:02:26.274Z,20.40
2017-09-27T14:04:52.523Z,20.20
2017-09-27T14:07:18.691Z,20.30
2017-09-27T14:09:44.864Z,20.20
2017-09-27T14:12:11.102Z,20.10
2017-09-27T14:14:37.282Z,20.20
2017-09-27T14:17:03.484Z,20.20
2017-09-27T14:19:29.641Z,20.10
2017-09-27T14:21:56.553Z,19.90
2017-09-27T14:24:23.066Z,19.90
2017-09-27T14:26:49.224Z,20.00
2017-09-27T14:29:16.149Z,20.00
2017-09-27T14:31:42.320Z,20.00
2017-09-27T14:34:08.475Z,19.90
2017-09-27T14:36:34.653Z,19.70
2017-09-27T14:39:00.831Z,19.70
2017-09-27T14:41:27.044Z,19.80
2017-09-27T14:43:53.207Z,19.90
2017-09-27T14:46:20.119Z,19.70
2017-09-27T14:48:47.759Z,19.60
2017-09-27T14:51:13.935Z,19.60
2017-09-27T14:53:40.116Z,19.60
2017-09-27T14:56:06.300Z,19.50
2017-09-27T14:58:32.450Z,19.30
2017-09-27T15:00:59.355Z,19.20
2017-09-27T15:03:25.514Z,19.10
2017-09-27T15:05:51.701Z,19.10
2017-09-27T15:08:18.601Z,19.00
2017-09-27T15:10:44.775Z,19.00
2017-09-27T15:13:10.932Z,18.80
2017-09-27T15:15:37.132Z,18.70
2017-09-27T15:18:03.342Z,18.50
2017-09-27T15:20:29.550Z,18.50
2017-09-27T15:22:55.728Z,18.40
2017-09-27T15:25:22.669Z,18.50
2017-09-27T15:27:48.824Z,18.40
2017-09-27T15:30:15.133Z,18.50
2017-09-27T15:32:41.301Z,18.40
2017-09-27T15:35:08.224Z,18.50
2017-09-27T15:37:35.139Z,18.50
2017-09-27T15:40:01.821Z,18.50
2017-09-27T15:42:28.543Z,18.50
2017-09-27T15:44:55.166Z,18.50
2017-09-27T15:47:22.033Z,18.60
2017-09-27T15:49:49.087Z,18.60
2017-09-27T15:52:15.672Z,18.60
2017-09-27T15:54:42.407Z,18.70
2017-09-27T15:57:09.668Z,18.50
2017-09-27T15:59:36.407Z,18.40
2017-09-27T16:02:03.904Z,18.00
2017-09-27T16:04:30.810Z,18.00
2017-09-27T16:06:57.712Z,17.80
2017-09-27T16:09:24.930Z,17.70
2017-09-27T16:11:52.297Z,17.70
2017-09-27T16:14:19.926Z,17.70
2017-09-27T16:16:46.711Z,17.70
2017-09-27T16:19:13.388Z,17.60
2017-09-27T16:21:40.632Z,17.50
2017-09-27T16:24:06.868Z,17.50
2017-09-27T16:26:33.016Z,17.50
2017-09-27T16:28:59.210Z,17.50
2017-09-27T16:31:25.409Z,17.40
2017-09-27T16:33:52.331Z,17.30
2017-09-27T16:36:19.713Z,17.20
2017-09-27T16:38:45.930Z,17.10
2017-09-27T16:41:12.096Z,17.10
2017-09-27T16:43:39.265Z,16.80
2017-09-27T16:46:06.311Z,16.80
2017-09-27T16:48:32.459Z,16.80
2017-09-27T16:50:58.647Z,16.80
2017-09-27T16:53:24.820Z,16.70
2017-09-27T16:55:51.728Z,16.70
2017-09-27T16:58:17.880Z,16.60
2017-09-27T17:00:44.062Z,16.70
2017-09-27T17:03:10.236Z,16.70
2017-09-27T17:05:36.391Z,16.60
2017-09-27T17:08:02.557Z,16.50
2017-09-27T17:10:28.752Z,16.50
2017-09-27T17:12:54.933Z,16.50
2017-09-27T17:15:21.821Z,16.50
2017-09-27T17:17:48.004Z,16.50
2017-09-27T17:20:14.154Z,16.60
2017-09-27T17:22:41.105Z,16.60
2017-09-27T17:25:07.281Z,16.70
2017-09-27T17:27:33.847Z,16.70
2017-09-27T17:30:00.035Z,16.60
2017-09-27T17:32:26.233Z,16.50
2017-09-27T17:34:52.412Z,16.40
2017-09-27T17:37:19.316Z,16.20
2017-09-27T17:39:45.495Z,16.20
2017-09-27T17:42:11.636Z,16.30
2017-09-27T17:44:38.156Z,16.30
2017-09-27T17:47:04.331Z,16.20
2017-09-27T17:49:30.500Z,16.00
2017-09-27T17:51:56.652Z,16.00
2017-09-27T17:54:22.866Z,16.00
2017-09-27T17:56:49.014Z,16.00
2017-09-27T17:59:15.194Z,16.10
2017-09-27T18:01:48.243Z,16.10
2017-09-27T18:04:21.207Z,16.40
2017-09-27T18:06:54.245Z,16.50
2017-09-27T18:09:26.416Z,16.40
2017-09-27T18:11:58.784Z,16.40
2017-09-27T18:14:39.819Z,16.40
2017-09-27T18:17:07.779Z,16.50
2017-09-27T18:19:33.956Z,16.40
2017-09-27T18:22:00.124Z,16.40
2017-09-27T18:24:26.344Z,16.30
2017-09-27T18:26:52.515Z,16.20
2017-09-27T18:29:18.733Z,16.20
2017-09-27T18:31:44.883Z,16.20
2017-09-27T18:34:11.055Z,16.20
2017-09-27T18:36:37.199Z,16.10
2017-09-27T18:39:03.397Z,16.20
2017-09-27T18:41:30.287Z,16.20
2017-09-27T18:43:57.223Z,16.10
2017-09-27T18:46:23.380Z,16.10
2017-09-27T18:48:50.300Z,16.00
2017-09-27T18:51:16.469Z,15.90
2017-09-27T18:53:43.442Z,16.00
2017-09-27T18:56:09.607Z,16.00
2017-09-27T18:58:36.491Z,15.80
2017-09-27T19:01:02.709Z,15.70
2017-09-27T19:03:28.856Z,15.80
2017-09-27T19:05:55.061Z,16.00
2017-09-27T19:08:21.217Z,16.00
2017-09-27T19:10:47.458Z,16.00
2017-09-27T19:13:13.621Z,16.10
2017-09-27T19:15:40.566Z,16.20
2017-09-27T19:18:06.735Z,16.10
2017-09-27T19:20:32.929Z,16.20
2017-09-27T19:22:59.135Z,16.20
2017-09-27T19:25:25.322Z,16.20
2017-09-27T19:27:51.548Z,16.10
2017-09-27T19:30:17.809Z,16.10
2017-09-27T19:32:43.971Z,15.90
2017-09-27T19:35:10.143Z,15.80
2017-09-27T19:37:36.305Z,15.70
2017-09-27T19:40:02.520Z,15.70
2017-09-27T19:42:28.684Z,15.70
2017-09-27T19:44:54.880Z,15.60
2017-09-27T19:47:21.773Z,15.40
2017-09-27T19:49:47.931Z,15.40
2017-09-27T19:52:14.109Z,15.30
2017-09-27T19:54:40.264Z,15.30
2017-09-27T19:57:06.440Z,15.30
2017-09-27T19:59:32.610Z,15.30
2017-09-27T20:01:58.800Z,15.30
2017-09-27T20:04:24.949Z,15.30
2017-09-27T20:06:52.018Z,15.30
2017-09-27T20:09:18.201Z,15.30
2017-09-27T20:11:45.140Z,15.20
2017-09-27T20:14:12.053Z,15.20
2017-09-27T20:16:38.992Z,15.20
2017-09-27T20:19:05.928Z,15.20
2017-09-27T20:21:32.149Z,15.10
2017-09-27T20:23:58.382Z,15.10
2017-09-27T20:26:24.604Z,15.10
2017-09-27T20:28:50.813Z,15.00
2017-09-27T20:31:17.073Z,14.90
2017-09-27T20:33:43.265Z,14.90
2017-09-27T20:36:09.479Z,14.60
2017-09-27T20:38:36.401Z,14.60
2017-09-27T20:41:02.613Z,14.60
2017-09-27T20:43:28.960Z,14.40
2017-09-27T20:45:55.551Z,14.40
2017-09-27T20:48:21.757Z,14.40
2017-09-27T20:50:48.168Z,14.30
2017-09-27T20:53:15.090Z,14.40
2017-09-27T20:55:41.385Z,14.40
2017-09-27T20:58:07.641Z,14.30
2017-09-27T21:00:33.875Z,14.30
2017-09-27T21:03:00.061Z,14.30
2017-09-27T21:05:26.264Z,14.20
2017-09-27T21:07:53.208Z,14.20
2017-09-27T21:10:20.225Z,14.20
2017-09-27T21:12:46.465Z,14.20
2017-09-27T21:15:12.691Z,14.20
2017-09-27T21:17:38.910Z,14.20
2017-09-27T21:20:05.107Z,14.20
2017-09-27T21:22:31.305Z,14.20
2017-09-27T21:24:57.509Z,14.20
2017-09-27T21:27:24.437Z,14.20
2017-09-27T21:29:50.665Z,14.20
2017-09-27T21:32:16.958Z,14.20
2017-09-27T21:34:43.176Z,14.20
2017-09-27T21:37:09.365Z,14.20
2017-09-27T21:39:35.571Z,14.20
2017-09-27T21:42:01.790Z,14.20
2017-09-27T21:44:28.034Z,14.30
2017-09-27T21:46:54.342Z,14.30
2017-09-27T21:49:20.581Z,14.30
2017-09-27T21:51:46.796Z,14.30
2017-09-27T21:54:12.989Z,14.30
2017-09-27T21:56:39.296Z,14.30
2017-09-27T21:59:06.254Z,14.30
2017-09-27T22:01:33.203Z,14.20
2017-09-27T22:04:00.117Z,14.20
2017-09-27T22:06:26.403Z,14.20
2017-09-27T22:08:52.749Z,14.20
2017-09-27T22:11:19.056Z,14.20
2017-09-27T22:13:45.281Z,14.20
2017-09-27T22:16:11.576Z,14.20
2017-09-27T22:18:38.566Z,14.10
2017-09-27T22:21:04.825Z,14.10
2017-09-27T22:23:31.187Z,14.10
2017-09-27T22:25:58.212Z,14.10
2017-09-27T22:28:24.464Z,14.10
2017-09-27T22:30:51.464Z,14.20
2017-09-27T22:33:17.721Z,14.20
2017-09-27T22:35:43.999Z,14.20
2017-09-27T22:38:10.233Z,14.30
2017-09-27T22:40:36.508Z,14.30
2017-09-27T22:43:02.739Z,14.30
2017-09-27T22:45:29.016Z,14.40
2017-09-27T22:47:55.265Z,14.40
2017-09-27T22:50:21.524Z,14.40
2017-09-27T22:52:47.795Z,14.40
2017-09-27T22:55:14.067Z,14.40
2017-09-27T22:57:40.430Z,14.30
2017-09-27T23:00:14.476Z,14.40
2017-09-27T23:02:40.716Z,14.30
2017-09-27T23:05:06.981Z,14.30
2017-09-27T23:07:33.219Z,14.40
2017-09-27T23:10:00.233Z,14.40
2017-09-27T23:12:26.491Z,14.30
2017-09-27T23:14:53.493Z,14.20
2017-09-27T23:17:19.750Z,14.20
2017-09-27T23:19:46.005Z,14.20
2017-09-27T23:22:13.027Z,14.00
2017-09-27T23:24:39.354Z,14.00
2017-09-27T23:27:05.641Z,14.00
2017-09-27T23:29:31.912Z,13.90
2017-09-27T23:31:58.146Z,13.90
2017-09-27T23:34:24.426Z,13.90
2017-09-27T23:36:50.718Z,13.80
2017-09-27T23:39:17.742Z,13.70
2017-09-27T23:41:43.987Z,13.60
2017-09-27T23:44:10.223Z,13.60
2017-09-27T23:46:37.231Z,13.50
2017-09-27T23:49:03.499Z,13.50
2017-09-27T23:51:30.576Z,13.50
2017-09-27T23:53:56.769Z,13.50
2017-09-27T23:56:22.974Z,13.50
2017-09-27T23:58:49.158Z,13.50
